Time,TemperatureF,DewpointF,PressureIn,WindDirection,WindDirectionDegrees,WindSpeedMPH,WindSpeedGustMPH,Humidity,HourlyPrecipIn,Conditions,Clouds,dailyrainin,SolarRadiationWatts/m^2,SoftwareType,DateUTC
2013-05-10 00:01:00,55.2,53.6,29.98,SSW,204,0.0,2.0,94,0.00,,,0.13,0.0,meteohub,2013-05-10 04:01:00,
2013-05-10 00:03:00,55.2,53.6,29.98,SSW,204,0.0,2.0,94,0.00,,,0.13,0.0,meteohub,2013-05-10 04:03:00,
2013-05-10 00:08:00,55.0,53.4,29.98,WNW,287,0.0,2.0,94,0.00,,,0.00,0.0,meteohub,2013-05-10 04:08:00,
2013-05-10 00:13:00,55.0,53.4,29.98,WSW,237,0.0,4.0,94,0.00,,,0.00,0.0,meteohub,2013-05-10 04:13:00,
2013-05-10 00:18:00,55.0,53.4,29.98,SSW,209,1.0,4.0,94,0.00,,,0.00,0.0,meteohub,2013-05-10 04:18:00,
2013-05-10 00:23:00,55.0,53.4,29.98,SSW,192,0.0,4.0,94,0.00,,,0.00,0.0,meteohub,2013-05-10 04:23:00,
2013-05-10 00:28:00,55.0,53.4,29.98,SSW,192,0.0,4.0,94,0.00,,,0.00,0.0,meteohub,2013-05-10 04:28:00,
2013-05-10 00:33:00,54.9,53.2,29.98,SW,222,0.0,3.0,94,0.00,,,0.00,0.0,meteohub,2013-05-10 04:33:00,
2013-05-10 00:38:00,54.9,53.2,29.98,South,177,0.0,4.0,94,0.00,,,0.00,0.0,meteohub,2013-05-10 04:38:00,
2013-05-10 00:43:00,54.7,53.1,29.98,South,177,1.0,4.0,94,0.00,,,0.00,0.0,meteohub,2013-05-10 04:43:00,
2013-05-10 00:49:00,54.7,53.1,29.98,SW,234,1.0,4.0,94,0.00,,,0.00,0.0,meteohub,2013-05-10 04:49:00,
2013-05-10 00:54:00,54.7,53.1,29.98,SW,221,0.0,4.0,94,0.00,,,0.00,0.0,meteohub,2013-05-10 04:54:00,
2013-05-10 00:59:00,54.7,53.2,29.98,SW,215,1.0,3.0,95,0.00,,,0.00,0.0,meteohub,2013-05-10 04:59:00,
2013-05-10 01:04:00,54.7,53.2,29.97,West,264,1.0,3.0,95,0.00,,,0.00,0.0,meteohub,2013-05-10 05:04:00,
2013-05-10 01:09:00,54.7,53.2,29.97,SW,229,0.0,4.0,95,0.00,,,0.00,0.0,meteohub,2013-05-10 05:09:00,
2013-05-10 01:14:00,54.7,53.2,29.97,SW,229,0.0,4.0,95,0.00,,,0.00,0.0,meteohub,2013-05-10 05:14:00,
2013-05-10 01:19:00,54.7,53.2,29.97,SW,227,0.0,4.0,95,0.00,,,0.00,0.0,meteohub,2013-05-10 05:19:00,
2013-05-10 01:24:00,54.7,53.2,29.97,SW,234,0.0,3.0,95,0.00,,,0.00,0.0,meteohub,2013-05-10 05:24:00,
2013-05-10 01:29:00,54.7,53.2,29.97,SSW,209,0.0,3.0,95,0.00,,,0.00,0.0,meteohub,2013-05-10 05:29:00,
2013-05-10 01:34:00,54.7,53.2,29.97,SSW,198,0.0,2.0,95,0.00,,,0.00,0.0,meteohub,2013-05-10 05:34:00,
2013-05-10 01:39:00,54.5,53.1,29.97,SSW,198,0.0,3.0,95,0.00,,,0.00,0.0,meteohub,2013-05-10 05:39:00,
2013-05-10 01:44:00,54.3,52.9,29.97,SSW,198,0.0,3.0,95,0.00,,,0.00,0.0,meteohub,2013-05-10 05:44:00,
2013-05-10 01:49:00,54.3,52.9,29.97,SSW,198,0.0,3.0,95,0.00,,,0.00,0.0,meteohub,2013-05-10 05:49:00,
2013-05-10 01:54:00,54.3,52.9,29.97,SSW,198,0.0,0.0,95,0.00,,,0.00,0.0,meteohub,2013-05-10 05:54:00,
2013-05-10 02:00:00,54.1,52.7,29.97,SSW,198,0.0,0.0,95,0.00,,,0.00,0.0,meteohub,2013-05-10 06:00:00,
2013-05-10 02:05:00,54.1,52.7,29.97,SSW,198,0.0,0.0,95,0.00,,,0.00,0.0,meteohub,2013-05-10 06:05:00,
2013-05-10 02:10:00,54.0,52.5,29.97,SSW,198,0.0,0.0,95,0.00,,,0.00,0.0,meteohub,2013-05-10 06:10:00,
2013-05-10 02:15:00,53.8,52.3,29.97,SSW,198,0.0,0.0,95,0.00,,,0.00,0.0,meteohub,2013-05-10 06:15:00,
2013-05-10 02:20:00,53.4,52.0,29.97,SSW,198,0.0,0.0,95,0.00,,,0.00,0.0,meteohub,2013-05-10 06:20:00,
2013-05-10 02:25:00,53.2,51.8,29.97,SSW,198,0.0,0.0,95,0.00,,,0.00,0.0,meteohub,2013-05-10 06:25:00,
2013-05-10 02:30:00,53.4,52.3,29.97,SW,236,0.0,2.0,96,0.00,,,0.00,0.0,meteohub,2013-05-10 06:30:00,
2013-05-10 02:35:00,53.4,52.3,29.97,SW,236,0.0,2.0,96,0.00,,,0.00,0.0,meteohub,2013-05-10 06:35:00,
2013-05-10 02:40:00,53.2,52.2,29.97,SW,236,0.0,2.0,96,0.00,,,0.00,0.0,meteohub,2013-05-10 06:40:00,
2013-05-10 02:45:00,53.2,51.8,29.97,SW,236,0.0,0.0,95,0.00,,,0.00,0.0,meteohub,2013-05-10 06:45:00,
2013-05-10 02:50:00,53.1,52.0,29.97,SW,236,0.0,0.0,96,0.00,,,0.00,0.0,meteohub,2013-05-10 06:50:00,
2013-05-10 02:56:00,53.1,52.0,29.98,SW,236,0.0,0.0,96,0.00,,,0.00,0.0,meteohub,2013-05-10 06:56:00,
2013-05-10 03:01:00,53.1,52.0,29.98,SW,236,0.0,0.0,96,0.00,,,0.00,0.0,meteohub,2013-05-10 07:01:00,
2013-05-10 03:06:00,53.2,52.2,29.98,SW,236,0.0,1.0,96,0.00,,,0.00,0.0,meteohub,2013-05-10 07:06:00,
2013-05-10 03:11:00,53.4,52.3,29.98,SW,236,0.0,1.0,96,0.00,,,0.00,0.0,meteohub,2013-05-10 07:11:00,
2013-05-10 03:16:00,53.4,52.3,29.98,SW,236,0.0,1.0,96,0.00,,,0.00,0.0,meteohub,2013-05-10 07:16:00,
2013-05-10 03:21:00,53.4,52.3,29.98,SW,236,0.0,0.0,96,0.00,,,0.00,0.0,meteohub,2013-05-10 07:21:00,
2013-05-10 03:26:00,53.2,52.2,29.98,SW,236,0.0,0.0,96,0.00,,,0.00,0.0,meteohub,2013-05-10 07:26:00,
2013-05-10 03:31:00,53.2,52.2,29.98,SW,236,0.0,0.0,96,0.00,,,0.00,0.0,meteohub,2013-05-10 07:31:00,
2013-05-10 03:36:00,53.1,52.0,29.97,SW,236,0.0,0.0,96,0.00,,,0.00,0.0,meteohub,2013-05-10 07:36:00,
2013-05-10 03:41:00,53.1,52.0,29.97,SW,236,0.0,0.0,96,0.00,,,0.00,0.0,meteohub,2013-05-10 07:41:00,
2013-05-10 03:46:00,52.9,51.8,29.97,SW,236,0.0,0.0,96,0.00,,,0.00,0.0,meteohub,2013-05-10 07:46:00,
2013-05-10 03:51:00,52.5,51.4,29.97,SW,236,0.0,0.0,96,0.00,,,0.00,0.0,meteohub,2013-05-10 07:51:00,
2013-05-10 03:56:00,52.3,51.3,29.98,SW,236,0.0,0.0,96,0.00,,,0.00,0.0,meteohub,2013-05-10 07:56:00,
2013-05-10 04:02:00,52.2,51.1,29.98,SW,236,0.0,0.0,96,0.00,,,0.00,0.0,meteohub,2013-05-10 08:02:00,
2013-05-10 04:07:00,52.2,51.1,29.98,SW,236,0.0,0.0,96,0.00,,,0.00,0.0,meteohub,2013-05-10 08:07:00,
2013-05-10 04:12:00,52.2,51.1,29.98,SW,236,0.0,0.0,96,0.00,,,0.00,0.0,meteohub,2013-05-10 08:12:00,
2013-05-10 04:17:00,52.2,51.1,29.99,SW,236,0.0,0.0,96,0.00,,,0.00,0.0,meteohub,2013-05-10 08:17:00,
2013-05-10 04:22:00,52.2,51.1,29.99,SW,236,0.0,0.0,96,0.00,,,0.00,0.0,meteohub,2013-05-10 08:22:00,
2013-05-10 04:27:00,52.2,51.1,29.99,SW,236,0.0,1.0,96,0.00,,,0.00,0.0,meteohub,2013-05-10 08:27:00,
2013-05-10 04:32:00,52.0,51.1,29.99,SW,236,0.0,1.0,97,0.00,,,0.00,0.0,meteohub,2013-05-10 08:32:00,
2013-05-10 04:37:00,52.0,51.1,29.99,SW,236,0.0,1.0,97,0.00,,,0.00,0.0,meteohub,2013-05-10 08:37:00,
2013-05-10 04:42:00,51.8,50.9,29.99,SW,236,0.0,1.0,97,0.00,,,0.00,0.0,meteohub,2013-05-10 08:42:00,
2013-05-10 04:47:00,51.6,50.5,29.99,SW,236,0.0,0.0,96,0.00,,,0.00,0.0,meteohub,2013-05-10 08:47:00,
2013-05-10 04:52:00,51.4,50.4,29.99,SW,236,0.0,0.0,96,0.00,,,0.00,0.0,meteohub,2013-05-10 08:52:00,
2013-05-10 04:57:00,51.4,50.5,29.99,SW,236,0.0,0.0,97,0.00,,,0.00,0.0,meteohub,2013-05-10 08:57:00,
2013-05-10 05:02:00,51.4,50.5,29.99,SW,236,0.0,1.0,97,0.00,,,0.00,0.0,meteohub,2013-05-10 09:02:00,
2013-05-10 05:07:00,51.4,50.5,29.99,SW,236,0.0,1.0,97,0.00,,,0.00,0.0,meteohub,2013-05-10 09:07:00,
2013-05-10 05:12:00,51.4,50.5,29.99,SW,236,0.0,1.0,97,0.00,,,0.00,0.0,meteohub,2013-05-10 09:12:00,
2013-05-10 05:17:00,51.4,50.5,29.99,SW,236,0.0,0.0,97,0.00,,,0.00,0.0,meteohub,2013-05-10 09:17:00,
2013-05-10 05:22:00,51.3,50.4,29.99,SW,236,0.0,0.0,97,0.00,,,0.00,0.0,meteohub,2013-05-10 09:22:00,
2013-05-10 05:27:00,51.1,50.0,29.99,SW,236,0.0,0.0,96,0.00,,,0.00,0.0,meteohub,2013-05-10 09:27:00,
2013-05-10 05:32:00,51.3,50.4,29.99,SW,236,0.0,0.0,97,0.00,,,0.00,0.0,meteohub,2013-05-10 09:32:00,
2013-05-10 05:37:00,51.6,50.7,29.99,SW,236,0.0,0.0,97,0.00,,,0.00,0.0,meteohub,2013-05-10 09:37:00,
2013-05-10 05:42:00,52.0,51.1,30.00,SW,236,0.0,1.0,97,0.00,,,0.00,5.0,meteohub,2013-05-10 09:42:00,
2013-05-10 05:47:00,52.0,51.1,30.00,SW,236,0.0,1.0,97,0.00,,,0.00,9.0,meteohub,2013-05-10 09:47:00,
2013-05-10 05:52:00,52.0,51.1,30.00,SW,236,0.0,1.0,97,0.00,,,0.00,12.0,meteohub,2013-05-10 09:52:00,
2013-05-10 05:57:00,51.6,50.7,30.00,SW,236,0.0,0.0,97,0.00,,,0.00,16.0,meteohub,2013-05-10 09:57:00,
2013-05-10 06:02:00,51.8,50.9,30.00,SW,236,0.0,0.0,97,0.00,,,0.00,19.0,meteohub,2013-05-10 10:02:00,
2013-05-10 06:07:00,52.0,51.1,30.01,SW,236,0.0,0.0,97,0.00,,,0.00,26.0,meteohub,2013-05-10 10:07:00,
2013-05-10 06:12:00,52.3,51.4,30.01,SW,236,0.0,0.0,97,0.00,,,0.00,33.0,meteohub,2013-05-10 10:12:00,
2013-05-10 06:17:00,52.5,51.6,30.01,SW,236,0.0,0.0,97,0.00,,,0.00,44.0,meteohub,2013-05-10 10:17:00,
2013-05-10 06:22:00,52.9,52.0,30.01,SW,236,0.0,0.0,97,0.00,,,0.00,47.0,meteohub,2013-05-10 10:22:00,
2013-05-10 06:27:00,53.1,52.2,30.01,SW,236,0.0,0.0,97,0.00,,,0.00,37.0,meteohub,2013-05-10 10:27:00,
2013-05-10 06:32:00,53.4,52.9,30.01,SW,236,0.0,0.0,98,0.00,,,0.00,54.0,meteohub,2013-05-10 10:32:00,
2013-05-10 06:37:00,54.0,53.4,30.02,SSW,209,0.0,3.0,98,0.00,,,0.00,47.0,meteohub,2013-05-10 10:37:00,
2013-05-10 06:42:00,54.3,53.8,30.02,SSW,209,0.0,3.0,98,0.00,,,0.00,70.0,meteohub,2013-05-10 10:42:00,
2013-05-10 06:47:00,54.7,54.1,30.02,SSW,205,1.0,3.0,98,0.00,,,0.00,69.0,meteohub,2013-05-10 10:47:00,
2013-05-10 06:52:00,55.0,54.5,30.02,SSW,205,0.0,2.0,98,0.00,,,0.00,88.0,meteohub,2013-05-10 10:52:00,
2013-05-10 06:57:00,55.2,54.7,30.02,WSW,257,0.0,2.0,98,0.00,,,0.00,151.0,meteohub,2013-05-10 10:57:00,
2013-05-10 07:02:00,55.8,55.2,30.02,WSW,257,0.0,2.0,98,0.00,,,0.00,183.0,meteohub,2013-05-10 11:02:00,
2013-05-10 07:07:00,56.1,55.6,30.02,WSW,257,0.0,1.0,98,0.00,,,0.00,197.0,meteohub,2013-05-10 11:07:00,
2013-05-10 07:12:00,56.7,56.1,30.02,WSW,242,1.0,1.0,98,0.00,,,0.00,214.0,meteohub,2013-05-10 11:12:00,
2013-05-10 07:17:00,56.8,56.3,30.02,WSW,242,0.0,2.0,98,0.00,,,0.00,229.0,meteohub,2013-05-10 11:17:00,
2013-05-10 07:22:00,57.4,56.8,30.02,SW,235,0.0,2.0,98,0.00,,,0.00,244.0,meteohub,2013-05-10 11:22:00,
2013-05-10 07:27:00,57.7,56.8,30.02,SW,234,0.0,2.0,97,0.00,,,0.00,260.0,meteohub,2013-05-10 11:27:00,
2013-05-10 07:32:00,57.9,57.0,30.03,SSW,213,1.0,2.0,97,0.00,,,0.00,274.0,meteohub,2013-05-10 11:32:00,
2013-05-10 07:37:00,58.5,57.6,30.03,WSW,244,1.0,4.0,97,0.00,,,0.00,290.0,meteohub,2013-05-10 11:37:00,
2013-05-10 07:42:00,58.6,57.2,30.03,West,260,0.0,4.0,95,0.00,,,0.00,302.0,meteohub,2013-05-10 11:42:00,
2013-05-10 07:47:00,59.4,57.6,30.03,WNW,291,0.0,4.0,94,0.00,,,0.00,320.0,meteohub,2013-05-10 11:47:00,
2013-05-10 07:52:00,60.1,57.7,30.03,WNW,289,6.0,6.0,92,0.00,,,0.00,338.0,meteohub,2013-05-10 11:52:00,
2013-05-10 07:57:00,60.6,57.7,30.03,West,268,4.0,8.0,90,0.00,,,0.00,353.0,meteohub,2013-05-10 11:57:00,
2013-05-10 08:02:00,61.2,57.6,30.03,West,266,0.0,8.0,88,0.00,,,0.00,367.0,meteohub,2013-05-10 12:02:00,
2013-05-10 08:07:00,61.7,58.1,30.03,WSW,238,0.0,8.0,88,0.00,,,0.00,385.0,meteohub,2013-05-10 12:07:00,
2013-05-10 08:12:00,62.2,57.9,30.03,WSW,247,3.0,6.0,86,0.00,,,0.00,404.0,meteohub,2013-05-10 12:12:00,
2013-05-10 08:17:00,62.8,57.9,30.03,WSW,257,1.0,6.0,84,0.00,,,0.00,420.0,meteohub,2013-05-10 12:17:00,
2013-05-10 08:22:00,63.1,57.9,30.03,West,264,2.0,6.0,83,0.00,,,0.00,434.0,meteohub,2013-05-10 12:22:00,
2013-05-10 08:27:00,63.7,58.5,30.03,WSW,254,2.0,6.0,83,0.00,,,0.00,452.0,meteohub,2013-05-10 12:27:00,
2013-05-10 08:32:00,63.9,58.6,30.03,WSW,254,0.0,4.0,83,0.00,,,0.00,468.0,meteohub,2013-05-10 12:32:00,
2013-05-10 08:37:00,64.8,58.5,30.03,NNW,333,0.0,4.0,80,0.00,,,0.00,483.0,meteohub,2013-05-10 12:37:00,
2013-05-10 08:42:00,64.9,58.3,30.03,West,259,0.0,3.0,79,0.00,,,0.00,501.0,meteohub,2013-05-10 12:42:00,
2013-05-10 08:47:00,65.7,59.4,30.03,NNW,341,2.0,3.0,80,0.00,,,0.00,515.0,meteohub,2013-05-10 12:47:00,
2013-05-10 08:52:00,66.0,58.6,30.03,NNW,343,2.0,3.0,77,0.00,,,0.00,529.0,meteohub,2013-05-10 12:52:00,
2013-05-10 08:57:00,66.0,58.6,30.03,NNW,336,0.0,4.0,77,0.00,,,0.00,545.0,meteohub,2013-05-10 12:57:00,
2013-05-10 09:02:00,66.4,58.6,30.03,NNW,348,2.0,4.0,76,0.00,,,0.00,561.0,meteohub,2013-05-10 13:02:00,
2013-05-10 09:07:00,66.6,58.8,30.03,NNE,27,2.0,4.0,76,0.00,,,0.00,575.0,meteohub,2013-05-10 13:07:00,
2013-05-10 09:12:00,66.6,58.5,30.03,NNW,344,3.0,4.0,75,0.00,,,0.00,591.0,meteohub,2013-05-10 13:12:00,
2013-05-10 09:17:00,66.2,58.1,30.03,NNE,24,4.0,5.0,75,0.00,,,0.00,605.0,meteohub,2013-05-10 13:17:00,
2013-05-10 09:22:00,66.4,58.3,30.03,NNW,327,1.0,5.0,75,0.00,,,0.00,613.0,meteohub,2013-05-10 13:22:00,
2013-05-10 09:27:00,66.6,58.5,30.03,North,355,2.0,5.0,75,0.00,,,0.00,629.0,meteohub,2013-05-10 13:27:00,
2013-05-10 09:32:00,66.7,58.1,30.03,NNW,339,2.0,5.0,74,0.00,,,0.00,643.0,meteohub,2013-05-10 13:32:00,
2013-05-10 09:37:00,67.3,59.0,30.03,NNW,347,2.0,5.0,75,0.00,,,0.00,657.0,meteohub,2013-05-10 13:37:00,
2013-05-10 09:42:00,67.5,58.5,30.03,North,355,4.0,5.0,73,0.00,,,0.00,673.0,meteohub,2013-05-10 13:42:00,
2013-05-10 09:47:00,66.9,57.9,30.03,NNE,16,5.0,6.0,73,0.01,,,0.01,686.0,meteohub,2013-05-10 13:47:00,
2013-05-10 09:52:00,66.7,58.1,30.03,NE,53,2.0,6.0,74,0.01,,,0.01,698.0,meteohub,2013-05-10 13:52:00,
2013-05-10 09:57:00,66.4,58.3,30.03,NE,46,4.0,8.0,75,0.01,,,0.01,712.0,meteohub,2013-05-10 13:57:00,
2013-05-10 10:02:00,66.6,58.1,30.03,NNE,19,2.0,8.0,74,0.01,,,0.01,722.0,meteohub,2013-05-10 14:02:00,
2013-05-10 10:07:00,66.7,59.4,30.03,NE,35,2.0,8.0,77,0.01,,,0.01,735.0,meteohub,2013-05-10 14:07:00,
2013-05-10 10:12:00,66.9,57.9,30.02,NE,54,2.0,7.0,73,0.01,,,0.01,745.0,meteohub,2013-05-10 14:12:00,
2013-05-10 10:17:00,67.1,58.5,30.02,NE,42,2.0,6.0,74,0.01,,,0.01,759.0,meteohub,2013-05-10 14:17:00,
2013-05-10 10:22:00,67.3,58.3,30.02,NE,47,5.0,7.0,73,0.01,,,0.01,772.0,meteohub,2013-05-10 14:22:00,
2013-05-10 10:27:00,67.3,58.6,30.02,NNE,25,3.0,7.0,74,0.01,,,0.01,784.0,meteohub,2013-05-10 14:27:00,
2013-05-10 10:32:00,67.3,58.6,30.03,North,0,2.0,7.0,74,0.01,,,0.01,793.0,meteohub,2013-05-10 14:32:00,
2013-05-10 10:37:00,67.3,58.6,30.03,NNE,16,4.0,7.0,74,0.01,,,0.01,805.0,meteohub,2013-05-10 14:37:00,
2013-05-10 10:42:00,67.5,58.5,30.03,NNW,348,1.0,6.0,73,0.00,,,0.01,817.0,meteohub,2013-05-10 14:42:00,
2013-05-10 10:47:00,67.5,58.1,30.03,NNE,28,4.0,7.0,72,0.00,,,0.01,810.0,meteohub,2013-05-10 14:47:00,
2013-05-10 10:52:00,67.6,57.6,30.03,NNE,20,5.0,7.0,70,0.00,,,0.01,831.0,meteohub,2013-05-10 14:52:00,
2013-05-10 10:57:00,67.6,57.9,30.03,ENE,64,2.0,7.0,71,0.00,,,0.01,842.0,meteohub,2013-05-10 14:57:00,
2013-05-10 11:02:00,68.4,58.6,30.03,ESE,122,3.0,7.0,71,0.00,,,0.01,853.0,meteohub,2013-05-10 15:02:00,
2013-05-10 11:07:00,68.4,58.3,30.03,East,90,5.0,7.0,70,0.00,,,0.01,860.0,meteohub,2013-05-10 15:07:00,
2013-05-10 11:12:00,68.0,57.9,30.03,ENE,71,1.0,7.0,70,0.00,,,0.01,867.0,meteohub,2013-05-10 15:12:00,
2013-05-10 11:17:00,68.2,58.1,30.03,ENE,76,3.0,7.0,70,0.00,,,0.01,867.0,meteohub,2013-05-10 15:17:00,
2013-05-10 11:22:00,68.7,59.0,30.03,ENE,70,2.0,6.0,71,0.00,,,0.01,884.0,meteohub,2013-05-10 15:22:00,
2013-05-10 11:27:00,69.1,57.7,30.02,NE,53,3.0,5.0,67,0.00,,,0.01,891.0,meteohub,2013-05-10 15:27:00,
2013-05-10 11:32:00,69.6,58.6,30.02,NNE,22,3.0,5.0,68,0.00,,,0.01,895.0,meteohub,2013-05-10 15:32:00,
2013-05-10 11:37:00,70.3,57.6,30.02,ENE,63,2.0,5.0,64,0.00,,,0.01,905.0,meteohub,2013-05-10 15:37:00,
2013-05-10 11:42:00,71.2,58.8,30.03,SE,140,0.0,5.0,65,0.00,,,0.01,914.0,meteohub,2013-05-10 15:42:00,
2013-05-10 11:47:00,72.1,59.4,30.03,SSE,161,3.0,5.0,64,0.00,,,0.01,926.0,meteohub,2013-05-10 15:47:00,
2013-05-10 11:52:00,72.5,58.8,30.02,ESE,115,2.0,6.0,62,0.00,,,0.01,923.0,meteohub,2013-05-10 15:52:00,
2013-05-10 11:57:00,72.7,58.8,30.02,South,177,4.0,6.0,62,0.00,,,0.01,935.0,meteohub,2013-05-10 15:57:00,
2013-05-10 12:02:00,72.7,57.6,30.02,SE,143,7.0,7.0,59,0.00,,,0.01,935.0,meteohub,2013-05-10 16:02:00,
2013-05-10 12:07:00,72.9,58.1,30.02,West,259,0.0,7.0,60,0.00,,,0.01,926.0,meteohub,2013-05-10 16:07:00,
2013-05-10 12:12:00,73.2,57.6,30.01,SSE,148,1.0,7.0,58,0.00,,,0.01,907.0,meteohub,2013-05-10 16:12:00,
2013-05-10 12:17:00,73.8,56.1,30.02,SSW,196,0.0,7.0,54,0.00,,,0.01,930.0,meteohub,2013-05-10 16:17:00,
2013-05-10 12:22:00,73.8,55.0,30.02,SSE,165,1.0,6.0,52,0.00,,,0.01,891.0,meteohub,2013-05-10 16:22:00,
2013-05-10 12:27:00,72.9,53.6,30.01,SSW,206,2.0,5.0,51,0.00,,,0.01,939.0,meteohub,2013-05-10 16:27:00,
2013-05-10 12:32:00,72.1,54.5,30.02,SSW,194,4.0,8.0,54,0.00,,,0.01,925.0,meteohub,2013-05-10 16:32:00,
2013-05-10 12:37:00,72.0,54.9,30.01,SE,136,2.0,10.0,55,0.00,,,0.01,981.0,meteohub,2013-05-10 16:37:00,
2013-05-10 12:42:00,72.9,55.2,30.02,South,186,2.0,10.0,54,0.00,,,0.01,972.0,meteohub,2013-05-10 16:42:00,
2013-05-10 12:47:00,73.2,54.5,30.01,SSW,202,6.0,9.0,52,0.00,,,0.01,969.0,meteohub,2013-05-10 16:47:00,
2013-05-10 12:52:00,73.2,54.5,30.02,SSW,200,2.0,6.0,52,0.00,,,0.01,984.0,meteohub,2013-05-10 16:52:00,
2013-05-10 12:57:00,73.0,55.4,30.02,SSE,157,2.0,7.0,54,0.00,,,0.01,977.0,meteohub,2013-05-10 16:57:00,
2013-05-10 13:02:00,72.9,54.7,30.02,SSW,192,3.0,10.0,53,0.00,,,0.01,874.0,meteohub,2013-05-10 17:02:00,
2013-05-10 13:07:00,73.0,55.4,30.02,SW,217,2.0,10.0,54,0.00,,,0.01,877.0,meteohub,2013-05-10 17:07:00,
2013-05-10 13:12:00,72.9,54.1,30.02,South,182,0.0,8.0,52,0.00,,,0.01,684.0,meteohub,2013-05-10 17:12:00,
2013-05-10 13:17:00,73.0,54.9,30.02,SSW,206,4.0,8.0,53,0.00,,,0.01,1048.0,meteohub,2013-05-10 17:17:00,
2013-05-10 13:22:00,72.9,56.3,30.02,SW,223,7.0,9.0,56,0.00,,,0.01,991.0,meteohub,2013-05-10 17:22:00,
2013-05-10 13:27:00,72.3,56.7,30.02,SSW,198,2.0,9.0,58,0.00,,,0.01,608.0,meteohub,2013-05-10 17:27:00,
2013-05-10 13:32:00,72.0,55.9,30.02,West,262,2.0,9.0,57,0.00,,,0.01,805.0,meteohub,2013-05-10 17:32:00,
2013-05-10 13:37:00,71.4,55.4,30.01,SSW,200,3.0,7.0,57,0.00,,,0.01,1071.0,meteohub,2013-05-10 17:37:00,
2013-05-10 13:42:00,72.1,56.1,30.01,SSW,199,3.0,6.0,57,0.00,,,0.01,998.0,meteohub,2013-05-10 17:42:00,
2013-05-10 13:47:00,72.9,55.8,30.01,ESE,108,3.0,8.0,55,0.00,,,0.01,986.0,meteohub,2013-05-10 17:47:00,
2013-05-10 13:52:00,73.4,55.2,30.01,WSW,258,0.0,8.0,53,0.00,,,0.01,928.0,meteohub,2013-05-10 17:52:00,
2013-05-10 13:57:00,73.2,55.0,30.01,SSE,165,2.0,8.0,53,0.00,,,0.01,914.0,meteohub,2013-05-10 17:57:00,
2013-05-10 14:02:00,73.2,55.0,30.01,South,175,5.0,8.0,53,0.00,,,0.01,946.0,meteohub,2013-05-10 18:02:00,
2013-05-10 14:07:00,73.2,56.7,30.01,SSW,199,2.0,8.0,56,0.00,,,0.01,847.0,meteohub,2013-05-10 18:07:00,
2013-05-10 14:12:00,73.4,56.7,30.01,SSE,166,2.0,8.0,56,0.00,,,0.01,668.0,meteohub,2013-05-10 18:12:00,
2013-05-10 14:17:00,73.0,55.9,30.01,SE,145,5.0,8.0,55,0.00,,,0.01,1027.0,meteohub,2013-05-10 18:17:00,
2013-05-10 14:22:00,72.5,56.5,30.01,ESE,120,3.0,8.0,57,0.00,,,0.01,1021.0,meteohub,2013-05-10 18:22:00,
2013-05-10 14:27:00,71.8,55.8,30.01,SE,145,4.0,8.0,57,0.00,,,0.01,937.0,meteohub,2013-05-10 18:27:00,
2013-05-10 14:32:00,71.8,56.7,30.01,SSW,192,3.0,8.0,59,0.00,,,0.01,390.0,meteohub,2013-05-10 18:32:00,
2013-05-10 14:37:00,71.1,56.8,30.01,WSW,245,3.0,8.0,61,0.00,,,0.01,450.0,meteohub,2013-05-10 18:37:00,
2013-05-10 14:42:00,70.3,56.3,30.01,SW,217,2.0,8.0,61,0.00,,,0.01,731.0,meteohub,2013-05-10 18:42:00,
2013-05-10 14:47:00,69.8,56.1,30.01,SSW,203,1.0,8.0,62,0.00,,,0.01,455.0,meteohub,2013-05-10 18:47:00,
2013-05-10 14:52:00,70.0,56.3,30.01,SW,225,2.0,8.0,62,0.00,,,0.01,689.0,meteohub,2013-05-10 18:52:00,
2013-05-10 14:57:00,70.3,56.7,30.01,West,268,6.0,7.0,62,0.00,,,0.01,998.0,meteohub,2013-05-10 18:57:00,
2013-05-10 15:02:00,71.2,56.7,30.01,WNW,283,1.0,9.0,60,0.00,,,0.01,886.0,meteohub,2013-05-10 19:02:00,
2013-05-10 15:07:00,71.4,56.8,30.01,SSW,209,4.0,9.0,60,0.00,,,0.01,863.0,meteohub,2013-05-10 19:07:00,
2013-05-10 15:12:00,71.1,56.5,30.01,ENE,57,2.0,11.0,60,0.00,,,0.01,824.0,meteohub,2013-05-10 19:12:00,
2013-05-10 15:17:00,70.5,55.9,30.01,SW,219,7.0,11.0,60,0.00,,,0.01,816.0,meteohub,2013-05-10 19:17:00,
2013-05-10 15:22:00,69.8,55.8,30.01,South,189,5.0,11.0,61,0.00,,,0.01,766.0,meteohub,2013-05-10 19:22:00,
2013-05-10 15:27:00,69.4,56.3,30.00,South,175,3.0,11.0,63,0.00,,,0.01,752.0,meteohub,2013-05-10 19:27:00,
2013-05-10 15:32:00,69.6,56.5,30.00,WSW,244,6.0,11.0,63,0.00,,,0.01,729.0,meteohub,2013-05-10 19:32:00,
2013-05-10 15:37:00,70.0,56.3,30.01,WSW,242,0.0,11.0,62,0.00,,,0.01,712.0,meteohub,2013-05-10 19:37:00,
2013-05-10 15:42:00,70.3,56.7,30.01,SSE,156,2.0,7.0,62,0.00,,,0.01,668.0,meteohub,2013-05-10 19:42:00,
2013-05-10 15:47:00,70.3,56.7,30.00,SW,220,4.0,7.0,62,0.00,,,0.01,575.0,meteohub,2013-05-10 19:47:00,
2013-05-10 15:52:00,70.2,56.1,30.00,South,182,2.0,7.0,61,0.00,,,0.01,431.0,meteohub,2013-05-10 19:52:00,
2013-05-10 15:57:00,69.3,56.1,30.00,SSW,197,2.0,7.0,63,0.00,,,0.01,374.0,meteohub,2013-05-10 19:57:00,
2013-05-10 16:02:00,69.1,55.9,30.00,SW,234,4.0,7.0,63,0.00,,,0.01,339.0,meteohub,2013-05-10 20:02:00,
2013-05-10 16:07:00,68.4,56.1,30.00,West,277,1.0,7.0,65,0.00,,,0.01,276.0,meteohub,2013-05-10 20:07:00,
2013-05-10 16:12:00,67.3,55.9,30.01,South,188,4.0,8.0,67,0.00,,,0.01,239.0,meteohub,2013-05-10 20:12:00,
2013-05-10 16:17:00,66.0,55.6,30.00,SSE,158,4.0,8.0,69,0.00,,,0.01,265.0,meteohub,2013-05-10 20:17:00,
2013-05-10 16:22:00,65.5,55.4,30.00,SSE,151,5.0,9.0,70,0.00,,,0.01,316.0,meteohub,2013-05-10 20:22:00,
2013-05-10 16:27:00,65.1,55.4,30.00,SSW,193,6.0,9.0,71,0.00,,,0.01,330.0,meteohub,2013-05-10 20:27:00,
2013-05-10 16:32:00,64.8,55.6,30.00,South,188,3.0,9.0,72,0.00,,,0.01,338.0,meteohub,2013-05-10 20:32:00,
2013-05-10 16:37:00,64.8,55.6,30.00,WSW,255,2.0,8.0,72,0.00,,,0.01,418.0,meteohub,2013-05-10 20:37:00,
2013-05-10 16:42:00,64.9,55.8,30.00,WSW,248,4.0,8.0,72,0.00,,,0.01,527.0,meteohub,2013-05-10 20:42:00,
2013-05-10 16:47:00,65.3,55.6,30.00,SW,226,2.0,8.0,71,0.00,,,0.01,436.0,meteohub,2013-05-10 20:47:00,
2013-05-10 16:52:00,65.5,55.8,30.00,South,189,3.0,8.0,71,0.00,,,0.01,330.0,meteohub,2013-05-10 20:52:00,
2013-05-10 16:57:00,65.5,56.3,30.00,WSW,241,4.0,8.0,72,0.00,,,0.01,322.0,meteohub,2013-05-10 20:57:00,
2013-05-10 17:02:00,65.7,56.3,30.00,SW,223,2.0,8.0,72,0.00,,,0.01,281.0,meteohub,2013-05-10 21:02:00,
2013-05-10 17:07:00,65.5,56.3,30.00,SW,231,4.0,7.0,72,0.00,,,0.01,274.0,meteohub,2013-05-10 21:07:00,
2013-05-10 17:12:00,64.9,55.8,30.00,South,184,4.0,7.0,72,0.00,,,0.01,302.0,meteohub,2013-05-10 21:12:00,
2013-05-10 17:17:00,64.4,55.6,30.00,SSE,163,4.0,8.0,73,0.00,,,0.01,283.0,meteohub,2013-05-10 21:17:00,
2013-05-10 17:22:00,63.9,55.8,30.00,WSW,239,6.0,10.0,75,0.00,,,0.01,255.0,meteohub,2013-05-10 21:22:00,
2013-05-10 17:27:00,63.7,55.6,30.00,SSW,197,6.0,10.0,75,0.00,,,0.01,209.0,meteohub,2013-05-10 21:27:00,
2013-05-10 17:32:00,63.1,55.8,30.01,SSW,211,2.0,10.0,77,0.00,,,0.01,190.0,meteohub,2013-05-10 21:32:00,
2013-05-10 17:37:00,63.0,55.6,30.00,WSW,250,4.0,9.0,77,0.00,,,0.01,211.0,meteohub,2013-05-10 21:37:00,
2013-05-10 17:42:00,62.8,55.8,30.00,SW,234,4.0,9.0,78,0.00,,,0.01,192.0,meteohub,2013-05-10 21:42:00,
2013-05-10 17:47:00,62.6,55.9,30.00,SSW,204,2.0,9.0,79,0.00,,,0.01,202.0,meteohub,2013-05-10 21:47:00,
2013-05-10 17:52:00,62.4,55.8,30.00,SSW,200,6.0,13.0,79,0.00,,,0.01,176.0,meteohub,2013-05-10 21:52:00,
2013-05-10 17:57:00,62.2,55.9,30.00,SW,221,3.0,13.0,80,0.00,,,0.01,172.0,meteohub,2013-05-10 21:57:00,
2013-05-10 17:58:00,62.2,55.9,30.00,SW,224,2.0,13.0,80,0.00,,,0.01,174.0,meteohub,2013-05-10 21:58:00,
2013-05-10 18:00:00,62.2,55.9,30.00,SSW,204,4.0,13.0,80,0.00,,,0.01,165.0,meteohub,2013-05-10 22:00:00,
2013-05-10 18:05:00,62.1,55.8,30.00,SSW,194,3.0,13.0,80,0.00,,,0.01,174.0,meteohub,2013-05-10 22:05:00,
2013-05-10 18:10:00,61.9,55.9,29.99,SW,234,1.0,8.0,81,0.00,,,0.01,199.0,meteohub,2013-05-10 22:10:00,
2013-05-10 18:15:00,62.1,55.8,29.99,WSW,249,1.0,7.0,80,0.00,,,0.01,169.0,meteohub,2013-05-10 22:15:00,
2013-05-10 18:20:00,61.9,55.6,30.00,WNW,282,4.0,10.0,80,0.00,,,0.01,130.0,meteohub,2013-05-10 22:20:00,
2013-05-10 18:25:00,61.5,55.6,30.00,SSW,205,2.0,10.0,81,0.00,,,0.01,100.0,meteohub,2013-05-10 22:25:00,
2013-05-10 18:31:00,61.5,55.6,30.00,SW,230,4.0,8.0,81,0.00,,,0.01,93.0,meteohub,2013-05-10 22:31:00,
2013-05-10 18:36:00,61.3,55.8,30.00,SSW,202,1.0,9.0,82,0.00,,,0.01,86.0,meteohub,2013-05-10 22:36:00,
2013-05-10 18:41:00,61.2,55.6,30.00,West,259,5.0,9.0,82,0.00,,,0.01,81.0,meteohub,2013-05-10 22:41:00,
2013-05-10 18:46:00,61.2,55.9,30.00,SSW,207,0.0,9.0,83,0.00,,,0.01,76.0,meteohub,2013-05-10 22:46:00,
2013-05-10 18:51:00,61.2,55.9,30.00,SSW,206,2.0,6.0,83,0.00,,,0.01,67.0,meteohub,2013-05-10 22:51:00,
2013-05-10 18:56:00,61.2,55.9,30.00,SSW,201,2.0,6.0,83,0.00,,,0.01,60.0,meteohub,2013-05-10 22:56:00,
2013-05-10 19:01:00,61.2,56.3,30.00,SSW,207,4.0,6.0,84,0.00,,,0.01,51.0,meteohub,2013-05-10 23:01:00,
2013-05-10 19:06:00,61.2,56.3,30.00,SSW,203,4.0,8.0,84,0.00,,,0.01,44.0,meteohub,2013-05-10 23:06:00,
2013-05-10 19:11:00,61.0,56.1,30.00,SSW,195,1.0,8.0,84,0.00,,,0.01,39.0,meteohub,2013-05-10 23:11:00,
2013-05-10 19:17:00,60.8,55.9,30.00,SSW,194,1.0,8.0,84,0.00,,,0.01,35.0,meteohub,2013-05-10 23:17:00,
2013-05-10 19:22:00,60.6,55.8,30.00,SSW,213,1.0,8.0,84,0.00,,,0.01,28.0,meteohub,2013-05-10 23:22:00,
2013-05-10 19:27:00,60.4,55.9,30.00,SW,234,1.0,8.0,85,0.00,,,0.01,23.0,meteohub,2013-05-10 23:27:00,
2013-05-10 19:32:00,60.3,55.8,30.00,South,188,1.0,8.0,85,0.00,,,0.01,16.0,meteohub,2013-05-10 23:32:00,
2013-05-10 19:37:00,60.1,55.9,30.00,South,176,2.0,7.0,86,0.00,,,0.01,11.0,meteohub,2013-05-10 23:37:00,
2013-05-10 19:42:00,59.9,55.8,30.00,WSW,248,2.0,7.0,86,0.00,,,0.01,7.0,meteohub,2013-05-10 23:42:00,
2013-05-10 19:47:00,59.7,55.6,30.00,SSW,193,6.0,7.0,86,0.00,,,0.01,0.0,meteohub,2013-05-10 23:47:00,
2013-05-10 19:52:00,59.7,55.8,30.00,SSW,197,3.0,7.0,87,0.00,,,0.01,0.0,meteohub,2013-05-10 23:52:00,
2013-05-10 19:57:00,59.7,55.8,30.00,South,180,1.0,7.0,87,0.00,,,0.01,0.0,meteohub,2013-05-10 23:57:00,
2013-05-10 20:02:00,59.7,55.8,30.00,South,191,1.0,7.0,87,0.00,,,0.01,0.0,meteohub,2013-05-11 00:02:00,
2013-05-10 20:07:00,59.7,55.8,30.00,SSE,158,0.0,7.0,87,0.00,,,0.01,0.0,meteohub,2013-05-11 00:07:00,
2013-05-10 20:12:00,59.5,55.6,29.99,South,184,1.0,8.0,87,0.00,,,0.01,0.0,meteohub,2013-05-11 00:12:00,
2013-05-10 20:17:00,59.5,55.6,29.99,South,178,0.0,8.0,87,0.00,,,0.01,0.0,meteohub,2013-05-11 00:17:00,
2013-05-10 20:22:00,59.5,55.6,30.00,South,180,4.0,5.0,87,0.00,,,0.01,0.0,meteohub,2013-05-11 00:22:00,
2013-05-10 20:27:00,59.4,55.8,29.99,South,171,0.0,5.0,88,0.00,,,0.01,0.0,meteohub,2013-05-11 00:27:00,
2013-05-10 20:32:00,59.2,55.6,29.99,South,187,2.0,5.0,88,0.00,,,0.01,0.0,meteohub,2013-05-11 00:32:00,
2013-05-10 20:37:00,59.2,55.6,29.99,WSW,244,0.0,5.0,88,0.00,,,0.01,0.0,meteohub,2013-05-11 00:37:00,
2013-05-10 20:42:00,59.0,55.4,29.99,SW,214,2.0,5.0,88,0.00,,,0.01,0.0,meteohub,2013-05-11 00:42:00,
2013-05-10 20:47:00,58.8,55.2,29.99,South,178,2.0,6.0,88,0.00,,,0.01,0.0,meteohub,2013-05-11 00:47:00,
2013-05-10 20:52:00,58.6,55.0,30.00,South,183,1.0,6.0,88,0.00,,,0.01,0.0,meteohub,2013-05-11 00:52:00,
2013-05-10 20:57:00,58.6,55.0,30.00,South,190,1.0,6.0,88,0.00,,,0.01,0.0,meteohub,2013-05-11 00:57:00,
2013-05-10 21:02:00,58.5,55.2,30.00,SSW,192,3.0,5.0,89,0.00,,,0.01,0.0,meteohub,2013-05-11 01:02:00,
2013-05-10 21:07:00,58.5,55.2,29.99,WSW,248,0.0,4.0,89,0.00,,,0.01,0.0,meteohub,2013-05-11 01:07:00,
2013-05-10 21:12:00,58.5,55.2,29.99,WNW,292,3.0,6.0,89,0.00,,,0.01,0.0,meteohub,2013-05-11 01:12:00,
2013-05-10 21:17:00,58.5,55.2,29.99,SSW,200,0.0,6.0,89,0.00,,,0.01,0.0,meteohub,2013-05-11 01:17:00,
2013-05-10 21:22:00,58.5,55.2,30.00,SSW,198,0.0,6.0,89,0.00,,,0.01,0.0,meteohub,2013-05-11 01:22:00,
2013-05-10 21:27:00,58.6,55.4,29.99,SSW,196,1.0,6.0,89,0.00,,,0.01,0.0,meteohub,2013-05-11 01:27:00,
2013-05-10 21:32:00,58.6,55.4,29.99,SSW,206,1.0,6.0,89,0.00,,,0.01,0.0,meteohub,2013-05-11 01:32:00,
2013-05-10 21:37:00,58.6,55.4,30.00,SSW,211,2.0,6.0,89,0.00,,,0.01,0.0,meteohub,2013-05-11 01:37:00,
2013-05-10 21:42:00,58.8,55.9,30.00,WSW,252,1.0,6.0,90,0.00,,,0.01,0.0,meteohub,2013-05-11 01:42:00,
2013-05-10 21:47:00,58.8,55.9,29.99,SSW,206,3.0,7.0,90,0.00,,,0.01,0.0,meteohub,2013-05-11 01:47:00,
2013-05-10 21:52:00,58.8,55.9,30.00,South,190,2.0,7.0,90,0.00,,,0.01,0.0,meteohub,2013-05-11 01:52:00,
2013-05-10 21:57:00,59.0,56.3,30.00,SW,228,2.0,8.0,91,0.00,,,0.01,0.0,meteohub,2013-05-11 01:57:00,
2013-05-10 22:02:00,59.0,56.3,30.00,WSW,244,3.0,8.0,91,0.00,,,0.01,0.0,meteohub,2013-05-11 02:02:00,
2013-05-10 22:07:00,59.2,56.8,30.00,SSW,212,3.0,8.0,92,0.00,,,0.01,0.0,meteohub,2013-05-11 02:07:00,
2013-05-10 22:12:00,59.2,56.8,30.00,SW,227,4.0,6.0,92,0.00,,,0.01,0.0,meteohub,2013-05-11 02:12:00,
2013-05-10 22:17:00,59.4,57.0,30.00,SSW,209,1.0,7.0,92,0.00,,,0.01,0.0,meteohub,2013-05-11 02:17:00,
2013-05-10 22:22:00,59.2,56.8,29.99,SSW,210,1.0,7.0,92,0.00,,,0.01,0.0,meteohub,2013-05-11 02:22:00,
2013-05-10 22:27:00,59.2,56.8,29.99,SW,228,2.0,7.0,92,0.00,,,0.01,0.0,meteohub,2013-05-11 02:27:00,
2013-05-10 22:32:00,59.2,56.8,29.99,West,270,1.0,7.0,92,0.00,,,0.01,0.0,meteohub,2013-05-11 02:32:00,
2013-05-10 22:37:00,59.2,57.2,29.99,SSW,205,1.0,6.0,93,0.00,,,0.01,0.0,meteohub,2013-05-11 02:37:00,
2013-05-10 22:42:00,59.2,57.2,29.99,SSW,213,1.0,6.0,93,0.00,,,0.01,0.0,meteohub,2013-05-11 02:42:00,
2013-05-10 22:47:00,59.2,57.2,29.99,SW,225,0.0,7.0,93,0.00,,,0.01,0.0,meteohub,2013-05-11 02:47:00,
2013-05-10 22:52:00,59.2,57.2,29.99,SE,134,3.0,7.0,93,0.00,,,0.01,0.0,meteohub,2013-05-11 02:52:00,
2013-05-10 22:57:00,59.4,57.6,29.99,SSW,202,2.0,7.0,94,0.00,,,0.01,0.0,meteohub,2013-05-11 02:57:00,
2013-05-10 23:02:00,59.4,57.6,29.99,South,190,2.0,9.0,94,0.00,,,0.01,0.0,meteohub,2013-05-11 03:02:00,
2013-05-10 23:07:00,59.4,57.6,29.99,South,187,3.0,9.0,94,0.00,,,0.01,0.0,meteohub,2013-05-11 03:07:00,
2013-05-10 23:12:00,59.2,57.2,29.99,WSW,249,2.0,8.0,93,0.00,,,0.01,0.0,meteohub,2013-05-11 03:12:00,
2013-05-10 23:17:00,58.8,56.8,29.99,SE,134,2.0,8.0,93,0.00,,,0.01,0.0,meteohub,2013-05-11 03:17:00,
2013-05-10 23:22:00,58.6,56.7,29.98,SSW,193,1.0,8.0,93,0.00,,,0.01,0.0,meteohub,2013-05-11 03:22:00,
2013-05-10 23:27:00,58.5,56.5,29.98,SW,221,1.0,6.0,93,0.00,,,0.01,0.0,meteohub,2013-05-11 03:27:00,
2013-05-10 23:32:00,58.3,56.3,29.98,SW,221,1.0,6.0,93,0.00,,,0.01,0.0,meteohub,2013-05-11 03:32:00,
2013-05-10 23:37:00,58.1,56.1,29.98,SSW,202,1.0,6.0,93,0.00,,,0.01,0.0,meteohub,2013-05-11 03:37:00,
2013-05-10 23:42:00,58.1,56.1,29.97,South,186,2.0,6.0,93,0.00,,,0.01,0.0,meteohub,2013-05-11 03:42:00,
2013-05-10 23:47:00,57.9,56.1,29.97,South,169,0.0,4.0,94,0.00,,,0.01,0.0,meteohub,2013-05-11 03:47:00,
2013-05-10 23:52:00,57.9,56.1,29.97,South,169,0.0,4.0,94,0.00,,,0.01,0.0,meteohub,2013-05-11 03:52:00,
2013-05-10 23:57:00,57.9,56.1,29.97,South,187,2.0,4.0,94,0.00,,,0.01,0.0,meteohub,2013-05-11 03:57:00,